Time;durP1;ratioP1;P1;durP2;ratioP2;P2;SDS_P1;SDS_P2;PMS_P1;PMS_P2;Temp;Humidity;BMP_temperature;BMP_pressure;BME280_temperature;BME280_humidity;BME280_pressure;Samples;Min_cycle;Max_cycle;Signal;HPM_P1;HPM_P2
2024/01/06 00:02:42;;;;;;;54.22;36.35;;;;;;;;;;6246447;28;24615;-73
2024/01/06 00:05:44;;;;;;;49.67;33.33;;;;;;;;;;6267059;28;24423;-73
2024/01/06 00:08:46;;;;;;;44.65;29.80;;;;;;;;;;6243487;28;24444;-73
2024/01/06 00:11:49;;;;;;;22.25;16.92;;;;;;;;;;6264896;28;25129;-73
2024/01/06 00:14:51;;;;;;;19.75;15.13;;;;;;;;;;6262579;28;24431;-72
2024/01/06 00:17:53;;;;;;;18.33;14.07;;;;;;;;;;6265955;28;24419;-73
2024/01/06 00:20:55;;;;;;;19.30;14.30;;;;;;;;;;6267510;28;24427;-73
2024/01/06 00:23:56;;;;;;;17.03;12.90;;;;;;;;;;6249235;28;24438;-73
2024/01/06 00:27:01;;;;;;;15.68;12.13;;;;;;;;;;6266011;28;24645;-74
2024/01/06 00:30:03;;;;;;;15.15;11.93;;;;;;;;;;6270938;28;24486;-73
2024/01/06 00:33:06;;;;;;;14.15;11.68;;;;;;;;;;6268149;28;24435;-74
2024/01/06 00:36:09;;;;;;;17.00;12.85;;;;;;;;;;6265104;28;24835;-73
2024/01/06 00:39:10;;;;;;;13.97;11.07;;;;;;;;;;6246796;28;24408;-74
2024/01/06 00:42:14;;;;;;;14.30;11.27;;;;;;;;;;6268392;28;24866;-72
2024/01/06 00:45:16;;;;;;;12.48;10.50;;;;;;;;;;6249358;28;24495;-73
2024/01/06 00:48:17;;;;;;;11.90;10.18;;;;;;;;;;6252790;28;24700;-74
2024/01/06 00:51:19;;;;;;;10.43;8.98;;;;;;;;;;6265955;28;24690;-73
2024/01/06 00:54:21;;;;;;;9.75;8.38;;;;;;;;;;6252387;28;24461;-74
2024/01/06 00:57:24;;;;;;;10.23;8.50;;;;;;;;;;6247232;28;24497;-73
2024/01/06 01:00:27;;;;;;;9.73;7.97;;;;;;;;;;6240625;28;24479;-73
2024/01/06 01:03:28;;;;;;;10.00;8.40;;;;;;;;;;6269357;28;24486;-73
2024/01/06 01:06:30;;;;;;;9.23;7.88;;;;;;;;;;6251046;28;24422;-73
2024/01/06 01:09:32;;;;;;;7.82;6.80;;;;;;;;;;6248618;28;24431;-73
2024/01/06 01:12:36;;;;;;;8.00;6.50;;;;;;;;;;6265273;28;24423;-73
2024/01/06 01:15:37;;;;;;;7.20;6.33;;;;;;;;;;6266117;28;24852;-73
2024/01/06 01:18:39;;;;;;;7.40;5.95;;;;;;;;;;6268047;28;24435;-73
2024/01/06 01:21:41;;;;;;;7.07;5.68;;;;;;;;;;6270302;28;24852;-73
2024/01/06 01:24:44;;;;;;;6.95;5.40;;;;;;;;;;6266868;28;24435;-73
2024/01/06 01:27:47;;;;;;;6.00;4.80;;;;;;;;;;6246932;28;24442;-73
2024/01/06 01:30:49;;;;;;;6.43;4.57;;;;;;;;;;6234006;28;24448;-73
2024/01/06 01:33:51;;;;;;;6.20;4.68;;;;;;;;;;6266477;28;24626;-73
2024/01/06 01:36:53;;;;;;;5.60;4.10;;;;;;;;;;6265547;28;24427;-74
2024/01/06 01:39:56;;;;;;;5.70;4.30;;;;;;;;;;6264664;28;24656;-72
2024/01/06 01:42:59;;;;;;;5.38;4.20;;;;;;;;;;6250392;28;24809;-73
2024/01/06 01:46:01;;;;;;;5.00;4.00;;;;;;;;;;6255777;28;24661;-73
2024/01/06 01:49:04;;;;;;;5.38;4.15;;;;;;;;;;6268359;28;24438;-74
2024/01/06 01:52:06;;;;;;;4.93;4.10;;;;;;;;;;6267815;28;24484;-74
2024/01/06 01:55:08;;;;;;;4.60;3.75;;;;;;;;;;6265139;28;24496;-73
2024/01/06 01:58:13;;;;;;;4.40;3.60;;;;;;;;;;6269047;28;24454;-74
2024/01/06 02:01:16;;;;;;;4.88;3.58;;;;;;;;;;6251732;28;24454;-73
2024/01/06 02:04:17;;;;;;;4.30;3.70;;;;;;;;;;6270150;28;24416;-86
2024/01/06 02:07:19;;;;;;;5.72;3.80;;;;;;;;;;6269951;28;24797;-86
2024/01/06 02:10:21;;;;;;;4.57;3.65;;;;;;;;;;6268175;28;24418;-86
2024/01/06 02:13:24;;;;;;;4.77;3.67;;;;;;;;;;6267114;28;24756;-85
2024/01/06 02:16:26;;;;;;;5.10;4.05;;;;;;;;;;6267764;28;24532;-86
2024/01/06 02:19:28;;;;;;;4.82;3.88;;;;;;;;;;6271839;28;24665;-85
2024/01/06 02:22:31;;;;;;;5.80;3.60;;;;;;;;;;6248826;28;24466;-86
2024/01/06 02:25:35;;;;;;;4.35;3.92;;;;;;;;;;6266857;28;24430;-86
2024/01/06 02:28:36;;;;;;;4.93;3.53;;;;;;;;;;6268307;28;24427;-85
2024/01/06 02:31:39;;;;;;;4.22;3.40;;;;;;;;;;6267092;28;24420;-85
2024/01/06 02:34:41;;;;;;;3.75;3.35;;;;;;;;;;6269771;28;24431;-86
2024/01/06 02:37:44;;;;;;;5.40;3.90;;;;;;;;;;6267494;28;24683;-86
2024/01/06 02:40:46;;;;;;;5.68;3.92;;;;;;;;;;6270622;28;24411;-86
2024/01/06 02:43:48;;;;;;;4.55;3.67;;;;;;;;;;6240052;28;24419;-85
2024/01/06 02:46:49;;;;;;;5.10;3.80;;;;;;;;;;6267701;28;24427;-84
2024/01/06 02:49:51;;;;;;;4.45;3.70;;;;;;;;;;6265050;28;24615;-86
2024/01/06 02:52:54;;;;;;;4.10;3.50;;;;;;;;;;6267516;28;24447;-86
2024/01/06 02:55:56;;;;;;;4.93;3.58;;;;;;;;;;6266825;28;24408;-85
2024/01/06 02:58:58;;;;;;;4.35;3.65;;;;;;;;;;6251494;28;24432;-85
2024/01/06 03:02:00;;;;;;;4.75;3.60;;;;;;;;;;6268582;28;24416;-86
2024/01/06 03:05:02;;;;;;;4.03;3.50;;;;;;;;;;6267979;28;24439;-86
2024/01/06 03:08:06;;;;;;;3.97;3.40;;;;;;;;;;6267681;28;24769;-85
2024/01/06 03:11:08;;;;;;;4.27;3.40;;;;;;;;;;6265345;28;24692;-86
2024/01/06 03:14:10;;;;;;;4.28;3.72;;;;;;;;;;6263616;28;24416;-72
2024/01/06 03:17:12;;;;;;;4.10;3.60;;;;;;;;;;6264218;28;24795;-73
2024/01/06 03:20:14;;;;;;;4.85;4.00;;;;;;;;;;6263961;28;24422;-73
2024/01/06 03:23:17;;;;;;;4.82;3.92;;;;;;;;;;6248106;28;24630;-73
2024/01/06 03:26:19;;;;;;;4.90;4.00;;;;;;;;;;6263696;28;24426;-72
2024/01/06 03:29:20;;;;;;;4.53;3.80;;;;;;;;;;6264370;28;24420;-73
2024/01/06 03:32:23;;;;;;;5.33;4.30;;;;;;;;;;6264632;28;24415;-73
2024/01/06 03:35:24;;;;;;;4.68;3.90;;;;;;;;;;6263932;28;24805;-74
2024/01/06 03:38:28;;;;;;;4.55;3.60;;;;;;;;;;6264569;28;24661;-73
2024/01/06 03:41:30;;;;;;;5.40;4.05;;;;;;;;;;6235012;28;24825;-74
2024/01/06 03:44:33;;;;;;;4.85;4.35;;;;;;;;;;6249791;28;24847;-73
2024/01/06 03:47:35;;;;;;;5.78;4.47;;;;;;;;;;6266685;28;24424;-73
2024/01/06 03:50:37;;;;;;;6.10;4.53;;;;;;;;;;6263123;28;24438;-73
2024/01/06 03:53:40;;;;;;;6.15;4.50;;;;;;;;;;6265509;28;24424;-73
2024/01/06 03:56:42;;;;;;;5.32;4.60;;;;;;;;;;6251971;28;24499;-73
2024/01/06 03:59:45;;;;;;;6.18;4.93;;;;;;;;;;6267259;28;24677;-73
2024/01/06 04:02:47;;;;;;;5.80;4.82;;;;;;;;;;6250800;28;24427;-73
2024/01/06 04:05:48;;;;;;;5.70;4.70;;;;;;;;;;6269025;28;24435;-73
2024/01/06 04:08:54;;;;;;;6.25;5.10;;;;;;;;;;6264218;28;24474;-73
2024/01/06 04:11:56;;;;;;;5.70;5.10;;;;;;;;;;6266702;28;24605;-73
2024/01/06 04:14:58;;;;;;;6.22;4.82;;;;;;;;;;6250735;28;24431;-72
2024/01/06 04:18:03;;;;;;;5.78;4.93;;;;;;;;;;6272185;28;25112;-72
2024/01/06 04:21:06;;;;;;;7.17;6.00;;;;;;;;;;6270687;28;24477;-73
2024/01/06 04:24:09;;;;;;;6.53;5.50;;;;;;;;;;6251826;28;24752;-74
2024/01/06 04:27:12;;;;;;;7.53;6.03;;;;;;;;;;6249088;28;24412;-73
2024/01/06 04:30:14;;;;;;;7.50;6.15;;;;;;;;;;6250789;28;24832;-73
2024/01/06 04:33:16;;;;;;;9.13;7.53;;;;;;;;;;6265981;28;24850;-73
2024/01/06 04:36:18;;;;;;;9.48;7.93;;;;;;;;;;6267913;28;24422;-73
2024/01/06 04:39:23;;;;;;;10.00;8.23;;;;;;;;;;6248388;28;24430;-74
2024/01/06 04:42:25;;;;;;;10.65;8.80;;;;;;;;;;6269241;28;24492;-73
2024/01/06 04:45:27;;;;;;;10.55;9.20;;;;;;;;;;6268324;28;24679;-72
2024/01/06 04:48:29;;;;;;;10.90;9.23;;;;;;;;;;6266843;28;24419;-73
2024/01/06 04:51:31;;;;;;;11.30;9.40;;;;;;;;;;6268548;28;24450;-74
2024/01/06 04:54:34;;;;;;;10.67;9.03;;;;;;;;;;6269866;28;24666;-73
2024/01/06 04:57:36;;;;;;;11.00;8.93;;;;;;;;;;6252511;28;24420;-73
2024/01/06 05:00:38;;;;;;;10.33;8.87;;;;;;;;;;6251511;28;24462;-73
2024/01/06 05:03:39;;;;;;;10.02;8.73;;;;;;;;;;6247788;28;24439;-73
2024/01/06 05:06:41;;;;;;;10.20;8.60;;;;;;;;;;6267176;28;24528;-73
2024/01/06 05:09:44;;;;;;;9.90;8.23;;;;;;;;;;6266993;28;24465;-73
2024/01/06 05:12:46;;;;;;;10.27;8.03;;;;;;;;;;6266262;28;24432;-73
2024/01/06 05:15:48;;;;;;;11.82;9.07;;;;;;;;;;6266942;28;24622;-73
2024/01/06 05:18:50;;;;;;;10.70;9.05;;;;;;;;;;6269680;28;24427;-73
2024/01/06 05:21:51;;;;;;;11.00;8.97;;;;;;;;;;6268808;28;24430;-74
2024/01/06 05:24:55;;;;;;;12.77;9.60;;;;;;;;;;6270279;28;24432;-73
2024/01/06 05:27:57;;;;;;;11.90;9.43;;;;;;;;;;6263683;28;24420;-73
2024/01/06 05:30:59;;;;;;;12.43;10.00;;;;;;;;;;6266939;28;24456;-73
2024/01/06 05:34:01;;;;;;;12.75;10.57;;;;;;;;;;6268688;28;24446;-73
2024/01/06 05:37:02;;;;;;;13.65;10.95;;;;;;;;;;6250456;28;24855;-73
2024/01/06 05:40:11;;;;;;;14.18;11.30;;;;;;;;;;6230375;28;24871;-73
2024/01/06 05:43:13;;;;;;;13.93;11.50;;;;;;;;;;6265586;28;24522;-71
2024/01/06 05:46:22;;;;;;;13.27;11.00;;;;;;;;;;6264395;28;24466;-73
2024/01/06 05:49:24;;;;;;;14.45;11.40;;;;;;;;;;6266862;28;24502;-73
2024/01/06 05:52:26;;;;;;;13.60;11.15;;;;;;;;;;6268205;28;24423;-74
2024/01/06 05:55:29;;;;;;;14.38;11.23;;;;;;;;;;6269776;28;24427;-74
2024/01/06 05:58:31;;;;;;;14.75;12.20;;;;;;;;;;6267020;28;24423;-74
2024/01/06 06:01:33;;;;;;;16.20;13.35;;;;;;;;;;6267964;28;24423;-74
2024/01/06 06:04:35;;;;;;;16.52;13.45;;;;;;;;;;6269257;28;24424;-73
2024/01/06 06:07:39;;;;;;;16.42;13.38;;;;;;;;;;6265815;28;24415;-74
2024/01/06 06:10:59;;;;;;;20.58;16.90;;;;;;;;;;6267057;28;24408;-73
2024/01/06 06:14:02;;;;;;;24.23;18.85;;;;;;;;;;6253217;28;24800;-73
2024/01/06 06:17:06;;;;;;;24.27;19.25;;;;;;;;;;6264649;28;24792;-73
2024/01/06 06:20:08;;;;;;;24.30;18.87;;;;;;;;;;6265137;28;24426;-74
2024/01/06 06:23:10;;;;;;;24.70;18.92;;;;;;;;;;6264358;28;24427;-73
2024/01/06 06:26:14;;;;;;;26.33;19.50;;;;;;;;;;6263861;28;24676;-74
2024/01/06 06:29:16;;;;;;;24.52;18.83;;;;;;;;;;6265202;28;24871;-73
2024/01/06 06:32:17;;;;;;;24.48;18.42;;;;;;;;;;6261537;28;24427;-73
2024/01/06 06:35:19;;;;;;;25.03;19.33;;;;;;;;;;6269550;28;24426;-74
2024/01/06 06:38:22;;;;;;;24.85;18.77;;;;;;;;;;6265311;28;24677;-74
2024/01/06 06:41:25;;;;;;;23.95;18.67;;;;;;;;;;6266364;28;24690;-74
2024/01/06 06:44:27;;;;;;;23.13;18.05;;;;;;;;;;6269052;28;24431;-74
2024/01/06 06:47:28;;;;;;;23.92;18.70;;;;;;;;;;6265662;28;24809;-73
2024/01/06 06:50:30;;;;;;;24.63;18.90;;;;;;;;;;6269179;28;24484;-73
2024/01/06 06:53:34;;;;;;;24.10;18.75;;;;;;;;;;6266597;28;24431;-73
2024/01/06 06:56:37;;;;;;;25.70;19.08;;;;;;;;;;6268557;28;24424;-74
2024/01/06 06:59:39;;;;;;;26.03;19.47;;;;;;;;;;6268319;28;24424;-74
2024/01/06 07:02:41;;;;;;;26.00;19.85;;;;;;;;;;6264801;28;24626;-74
2024/01/06 07:05:43;;;;;;;26.30;19.70;;;;;;;;;;6266191;28;24875;-74
2024/01/06 07:08:44;;;;;;;26.80;20.10;;;;;;;;;;6266782;28;24946;-74
2024/01/06 07:11:48;;;;;;;26.37;20.00;;;;;;;;;;6268893;28;24843;-74
2024/01/06 07:14:50;;;;;;;27.33;19.87;;;;;;;;;;6268173;28;24541;-74
2024/01/06 07:17:51;;;;;;;26.63;19.98;;;;;;;;;;6263542;28;24884;-74
2024/01/06 07:20:53;;;;;;;29.13;20.95;;;;;;;;;;6262679;28;25141;-73
2024/01/06 07:23:55;;;;;;;26.42;20.42;;;;;;;;;;6265899;28;24432;-74
2024/01/06 07:26:59;;;;;;;27.23;20.30;;;;;;;;;;6262002;28;24436;-75
2024/01/06 07:30:01;;;;;;;24.40;19.30;;;;;;;;;;6265460;28;24524;-75
2024/01/06 07:33:03;;;;;;;24.67;18.45;;;;;;;;;;6269717;28;24439;-75
2024/01/06 07:36:06;;;;;;;23.67;18.20;;;;;;;;;;6290938;28;24465;-75
2024/01/06 07:39:09;;;;;;;23.80;17.90;;;;;;;;;;6289664;28;24894;-74
2024/01/06 07:42:12;;;;;;;23.05;17.73;;;;;;;;;;6272952;28;24847;-74
2024/01/06 07:45:15;;;;;;;21.48;16.98;;;;;;;;;;6292299;28;24501;-74
2024/01/06 07:48:17;;;;;;;21.65;16.73;;;;;;;;;;6294261;28;24439;-74
2024/01/06 07:51:19;;;;;;;20.23;16.25;;;;;;;;;;6293148;28;24440;-74
2024/01/06 07:54:21;;;;;;;19.47;15.63;;;;;;;;;;6273591;28;24423;-75
2024/01/06 07:57:24;;;;;;;18.45;14.48;;;;;;;;;;6289087;28;24633;-74
2024/01/06 08:00:26;;;;;;;20.63;15.47;;;;;;;;;;6290444;28;24521;-74
2024/01/06 08:03:29;;;;;;;20.73;15.85;;;;;;;;;;6288590;28;24434;-74
2024/01/06 08:06:30;;;;;;;20.73;16.45;;;;;;;;;;6290893;28;24481;-76
2024/01/06 08:09:33;;;;;;;22.67;17.25;;;;;;;;;;6272986;28;24438;-75
2024/01/06 08:12:37;;;;;;;22.88;17.85;;;;;;;;;;6272518;28;24462;-75
2024/01/06 08:15:39;;;;;;;23.20;17.50;;;;;;;;;;6271228;28;24427;-75
2024/01/06 08:18:41;;;;;;;23.02;18.20;;;;;;;;;;6288520;28;24438;-75
2024/01/06 08:21:42;;;;;;;24.63;18.57;;;;;;;;;;6287540;28;24433;-74
2024/01/06 08:24:44;;;;;;;21.70;17.20;;;;;;;;;;6289405;28;24686;-74
2024/01/06 08:27:48;;;;;;;22.48;17.10;;;;;;;;;;6271716;28;24847;-74
2024/01/06 08:30:50;;;;;;;22.30;17.60;;;;;;;;;;6253334;28;24499;-74
2024/01/06 08:33:52;;;;;;;22.30;17.02;;;;;;;;;;6286218;28;24558;-74
2024/01/06 08:36:53;;;;;;;20.17;15.80;;;;;;;;;;6288958;28;24466;-74
2024/01/06 08:39:55;;;;;;;21.67;16.48;;;;;;;;;;6272522;28;24431;-75
2024/01/06 08:42:59;;;;;;;20.60;16.05;;;;;;;;;;6276885;28;24882;-73
2024/01/06 08:46:02;;;;;;;20.92;16.40;;;;;;;;;;6288823;28;25219;-75
2024/01/06 08:49:03;;;;;;;21.75;17.15;;;;;;;;;;6266665;28;24740;-75
2024/01/06 08:52:06;;;;;;;20.50;16.33;;;;;;;;;;6294865;28;24511;-75
2024/01/06 08:55:09;;;;;;;20.38;15.90;;;;;;;;;;6296682;28;24434;-75
2024/01/06 08:58:13;;;;;;;21.00;16.08;;;;;;;;;;6293053;28;24621;-74
2024/01/06 09:01:15;;;;;;;20.90;16.08;;;;;;;;;;6294796;28;24439;-75
2024/01/06 09:04:17;;;;;;;19.97;15.37;;;;;;;;;;6294173;28;24803;-74
2024/01/06 09:07:19;;;;;;;19.35;15.25;;;;;;;;;;6291365;28;24622;-74
2024/01/06 09:10:21;;;;;;;19.27;15.23;;;;;;;;;;6289497;28;24418;-74
2024/01/06 09:13:24;;;;;;;19.67;14.82;;;;;;;;;;6294390;28;24419;-75
2024/01/06 09:16:26;;;;;;;19.90;15.55;;;;;;;;;;6275000;28;24461;-75
2024/01/06 09:19:30;;;;;;;18.67;14.48;;;;;;;;;;6275627;28;24422;-74
2024/01/06 09:22:33;;;;;;;18.83;14.82;;;;;;;;;;6292878;28;24419;-74
2024/01/06 09:25:35;;;;;;;18.75;14.73;;;;;;;;;;6292426;28;24426;-74
2024/01/06 09:28:39;;;;;;;20.10;15.05;;;;;;;;;;6275356;28;24419;-74
2024/01/06 09:31:41;;;;;;;21.15;16.35;;;;;;;;;;6276106;28;24422;-74
2024/01/06 09:34:43;;;;;;;21.10;16.20;;;;;;;;;;6294813;28;24462;-73
2024/01/06 09:37:45;;;;;;;21.98;16.33;;;;;;;;;;6293337;28;24433;-73
2024/01/06 09:40:47;;;;;;;22.50;16.65;;;;;;;;;;6257454;28;24819;-75
2024/01/06 09:43:51;;;;;;;23.33;17.15;;;;;;;;;;6291862;28;24526;-75
2024/01/06 09:46:53;;;;;;;25.17;18.77;;;;;;;;;;6291637;28;24994;-75
2024/01/06 09:49:56;;;;;;;25.85;19.13;;;;;;;;;;6294396;28;24426;-76
2024/01/06 09:53:05;;;;;;;28.97;20.63;;;;;;;;;;6292255;28;24640;-74
2024/01/06 09:56:08;;;;;;;26.67;19.98;;;;;;;;;;6290470;28;24430;-75
2024/01/06 09:59:11;;;;;;;27.63;20.13;;;;;;;;;;6289347;28;24433;-73
2024/01/06 10:02:16;;;;;;;27.23;19.38;;;;;;;;;;6298950;28;24692;-86
2024/01/06 10:05:19;;;;;;;26.38;19.38;;;;;;;;;;6293014;28;24616;-73
2024/01/06 10:08:20;;;;;;;26.23;19.38;;;;;;;;;;6272169;28;24426;-73
2024/01/06 10:11:23;;;;;;;27.40;19.90;;;;;;;;;;6274399;28;24808;-72
2024/01/06 10:14:27;;;;;;;26.00;19.25;;;;;;;;;;6272875;28;24412;-73
2024/01/06 10:17:29;;;;;;;26.38;19.40;;;;;;;;;;6292458;28;24434;-72
2024/01/06 10:20:31;;;;;;;26.20;19.23;;;;;;;;;;6288521;28;24466;-74
2024/01/06 10:23:33;;;;;;;24.35;18.50;;;;;;;;;;6293972;28;24432;-73
2024/01/06 10:26:35;;;;;;;23.67;18.30;;;;;;;;;;6288602;28;24435;-68
2024/01/06 10:29:38;;;;;;;21.63;17.25;;;;;;;;;;6287966;28;24617;-68
2024/01/06 10:32:40;;;;;;;21.42;17.17;;;;;;;;;;6268104;28;24530;-67
2024/01/06 10:35:42;;;;;;;21.80;16.67;;;;;;;;;;6292904;28;24434;-68
2024/01/06 10:38:45;;;;;;;19.92;15.73;;;;;;;;;;6291775;28;24414;-66
2024/01/06 10:41:47;;;;;;;20.65;15.40;;;;;;;;;;6289510;28;24427;-66
2024/01/06 10:44:50;;;;;;;18.95;14.43;;;;;;;;;;6289117;28;24420;-67
2024/01/06 10:47:53;;;;;;;20.63;16.20;;;;;;;;;;6291345;28;25011;-66
2024/01/06 10:50:56;;;;;;;22.97;14.80;;;;;;;;;;6271674;28;24680;-63
2024/01/06 10:53:59;;;;;;;16.75;13.63;;;;;;;;;;6288546;28;24489;-64
2024/01/06 10:57:02;;;;;;;17.02;14.00;;;;;;;;;;6290367;28;24429;-63
2024/01/06 11:00:07;;;;;;;18.08;14.57;;;;;;;;;;6275167;28;24824;-64
2024/01/06 11:03:10;;;;;;;17.42;14.45;;;;;;;;;;6289170;28;24454;-64
2024/01/06 11:06:12;;;;;;;17.08;14.35;;;;;;;;;;6293041;28;24438;-63
2024/01/06 11:09:17;;;;;;;19.67;15.13;;;;;;;;;;6273493;28;24421;-63
2024/01/06 11:12:19;;;;;;;19.25;15.73;;;;;;;;;;6288715;28;24481;-63
2024/01/06 11:15:44;;;;;;;19.90;15.70;;;;;;;;;;6292918;28;24431;-63
2024/01/06 11:18:46;;;;;;;18.15;14.95;;;;;;;;;;6292156;28;24430;-63
2024/01/06 11:21:48;;;;;;;16.90;14.60;;;;;;;;;;6272603;28;24503;-63
2024/01/06 11:24:50;;;;;;;18.30;14.97;;;;;;;;;;6288487;28;24438;-74
2024/01/06 11:27:57;;;;;;;16.70;13.83;;;;;;;;;;6292529;28;24712;-72
2024/01/06 11:31:09;;;;;;;17.52;14.48;;;;;;;;;;6292873;28;24465;-71
2024/01/06 11:34:15;;;;;;;18.13;14.65;;;;;;;;;;6286294;28;24730;-72
2024/01/06 11:37:19;;;;;;;16.65;14.35;;;;;;;;;;6288188;28;24409;-77
2024/01/06 11:40:26;;;;;;;17.95;14.85;;;;;;;;;;6288764;28;24429;-75
2024/01/06 11:43:28;;;;;;;18.17;14.70;;;;;;;;;;6292045;28;24480;-73
2024/01/06 11:46:31;;;;;;;18.55;15.10;;;;;;;;;;6290912;28;24415;-75
2024/01/06 11:49:33;;;;;;;18.42;15.05;;;;;;;;;;6289239;28;24427;-76
2024/01/06 11:52:35;;;;;;;17.83;15.18;;;;;;;;;;6293001;28;24628;-72
2024/01/06 11:55:39;;;;;;;18.92;15.68;;;;;;;;;;6287551;28;24823;-72
2024/01/06 11:58:42;;;;;;;18.13;14.95;;;;;;;;;;6291383;28;24412;-72
2024/01/06 12:01:45;;;;;;;18.30;15.33;;;;;;;;;;6285630;28;25014;-71
2024/01/06 12:04:50;;;;;;;19.05;15.75;;;;;;;;;;6292250;28;24422;-73
2024/01/06 12:07:56;;;;;;;19.70;15.93;;;;;;;;;;6289445;28;24885;-72
2024/01/06 12:11:04;;;;;;;22.17;17.27;;;;;;;;;;6288667;28;24419;-72
2024/01/06 12:14:06;;;;;;;19.52;16.17;;;;;;;;;;6289521;28;25025;-72
2024/01/06 12:17:09;;;;;;;19.97;16.53;;;;;;;;;;6292854;28;24994;-71
2024/01/06 12:20:11;;;;;;;20.80;16.55;;;;;;;;;;6297563;28;24532;-72
2024/01/06 12:23:15;;;;;;;20.52;16.77;;;;;;;;;;6294209;28;24419;-73
2024/01/06 12:26:17;;;;;;;20.23;16.37;;;;;;;;;;6295261;28;24547;-72
2024/01/06 12:29:19;;;;;;;21.02;16.55;;;;;;;;;;6293372;28;24669;-70
2024/01/06 12:32:22;;;;;;;18.30;15.10;;;;;;;;;;6294756;28;24483;-72
2024/01/06 12:35:24;;;;;;;22.83;14.35;;;;;;;;;;6294570;28;24453;-63
2024/01/06 12:38:27;;;;;;;21.35;16.52;;;;;;;;;;6296011;28;24533;-63
2024/01/06 12:41:29;;;;;;;23.30;17.57;;;;;;;;;;6292699;28;24519;-63
2024/01/06 12:44:33;;;;;;;22.17;17.67;;;;;;;;;;6295324;28;24420;-64
2024/01/06 12:47:37;;;;;;;23.08;18.13;;;;;;;;;;6295423;28;24427;-63
2024/01/06 12:50:38;;;;;;;22.85;18.30;;;;;;;;;;6296064;28;24445;-64
2024/01/06 12:53:40;;;;;;;21.77;16.93;;;;;;;;;;6293460;28;24415;-64
2024/01/06 12:56:42;;;;;;;22.15;17.23;;;;;;;;;;6298497;28;24427;-63
2024/01/06 12:59:44;;;;;;;21.67;17.45;;;;;;;;;;6294925;28;24480;-64
2024/01/06 13:02:47;;;;;;;23.30;18.00;;;;;;;;;;6295342;28;24622;-64
2024/01/06 13:05:50;;;;;;;21.20;17.02;;;;;;;;;;6291670;28;24423;-64
2024/01/06 13:08:52;;;;;;;22.90;17.77;;;;;;;;;;6297207;28;25062;-64
2024/01/06 13:11:55;;;;;;;23.17;18.27;;;;;;;;;;6293339;28;24431;-63
2024/01/06 13:14:58;;;;;;;23.30;17.73;;;;;;;;;;6297768;28;24425;-64
2024/01/06 13:18:01;;;;;;;21.77;17.05;;;;;;;;;;6295277;28;24812;-64
2024/01/06 13:21:03;;;;;;;23.00;18.02;;;;;;;;;;6297654;28;24434;-64
2024/01/06 13:24:06;;;;;;;22.38;17.65;;;;;;;;;;6292355;28;24427;-63
2024/01/06 13:27:09;;;;;;;22.13;17.33;;;;;;;;;;6291605;28;24441;-63
2024/01/06 13:30:12;;;;;;;22.10;17.13;;;;;;;;;;6294831;28;24422;-63
2024/01/06 13:33:15;;;;;;;20.92;16.75;;;;;;;;;;6293539;28;24435;-63
2024/01/06 13:36:18;;;;;;;22.42;17.08;;;;;;;;;;6293575;28;24882;-64
2024/01/06 13:39:20;;;;;;;21.10;16.33;;;;;;;;;;6293213;28;24476;-63
2024/01/06 13:42:22;;;;;;;22.48;17.60;;;;;;;;;;6296613;28;24472;-63
2024/01/06 13:45:24;;;;;;;22.60;17.63;;;;;;;;;;6292252;28;24418;-64
2024/01/06 13:48:27;;;;;;;21.83;16.97;;;;;;;;;;6275827;28;24430;-64
2024/01/06 13:51:29;;;;;;;21.80;16.63;;;;;;;;;;6293211;28;24503;-64
2024/01/06 13:54:31;;;;;;;21.27;16.52;;;;;;;;;;6290089;28;25033;-63
2024/01/06 13:57:32;;;;;;;21.13;16.80;;;;;;;;;;6292508;28;24874;-64
2024/01/06 14:00:34;;;;;;;20.70;16.27;;;;;;;;;;6291488;28;24430;-64
2024/01/06 14:03:37;;;;;;;21.00;16.33;;;;;;;;;;6290189;28;24420;-64
2024/01/06 14:06:39;;;;;;;20.20;15.93;;;;;;;;;;6291521;28;24433;-64
2024/01/06 14:09:41;;;;;;;19.27;15.40;;;;;;;;;;6274456;28;24824;-63
2024/01/06 14:12:43;;;;;;;21.52;17.05;;;;;;;;;;6289546;28;24778;-64
2024/01/06 14:15:45;;;;;;;21.83;16.90;;;;;;;;;;6290491;28;24846;-63
2024/01/06 14:18:48;;;;;;;21.90;16.83;;;;;;;;;;6273064;28;24444;-64
2024/01/06 14:21:50;;;;;;;22.05;17.45;;;;;;;;;;6293111;28;24431;-64
2024/01/06 14:24:54;;;;;;;22.00;17.35;;;;;;;;;;6272237;28;24483;-63
2024/01/06 14:27:56;;;;;;;22.05;17.27;;;;;;;;;;6289529;28;24434;-64
2024/01/06 14:30:58;;;;;;;20.88;17.15;;;;;;;;;;6290102;28;24541;-64
2024/01/06 14:34:01;;;;;;;22.15;17.80;;;;;;;;;;6273390;28;24477;-64
2024/01/06 14:37:12;;;;;;;24.42;18.15;;;;;;;;;;6288498;28;25651;-64
2024/01/06 14:40:16;;;;;;;21.08;16.95;;;;;;;;;;6287647;28;24450;-64
2024/01/06 14:43:21;;;;;;;23.00;17.83;;;;;;;;;;6290881;28;24411;-64
2024/01/06 14:46:24;;;;;;;24.43;18.77;;;;;;;;;;6289350;28;24468;-63
2024/01/06 14:49:30;;;;;;;23.52;18.63;;;;;;;;;;6294062;28;24419;-64
2024/01/06 14:52:34;;;;;;;23.15;18.08;;;;;;;;;;6289077;28;24414;-63
2024/01/06 14:55:36;;;;;;;22.77;17.95;;;;;;;;;;6275749;28;24490;-72
2024/01/06 14:58:38;;;;;;;25.40;19.50;;;;;;;;;;6290350;28;24419;-72
2024/01/06 15:01:44;;;;;;;24.50;18.87;;;;;;;;;;6291883;28;24425;-72
2024/01/06 15:04:47;;;;;;;24.85;18.50;;;;;;;;;;6292875;28;24468;-71
2024/01/06 15:07:54;;;;;;;21.25;17.02;;;;;;;;;;6291219;28;24499;-72
2024/01/06 15:10:56;;;;;;;24.17;18.73;;;;;;;;;;6288232;28;24609;-71
2024/01/06 15:14:00;;;;;;;22.47;18.33;;;;;;;;;;6293039;28;24626;-72
2024/01/06 15:17:02;;;;;;;22.35;17.73;;;;;;;;;;6270446;28;24469;-71
2024/01/06 15:20:07;;;;;;;21.63;17.33;;;;;;;;;;6291297;28;24426;-71
2024/01/06 15:23:09;;;;;;;21.48;17.92;;;;;;;;;;6287551;28;24421;-73
2024/01/06 15:26:11;;;;;;;22.00;17.35;;;;;;;;;;6290967;28;24422;-71
2024/01/06 15:29:12;;;;;;;21.40;17.30;;;;;;;;;;6290581;28;24422;-71
2024/01/06 15:32:14;;;;;;;21.38;16.95;;;;;;;;;;6288848;28;24620;-71
2024/01/06 15:35:17;;;;;;;22.85;17.35;;;;;;;;;;6292375;28;24450;-71
2024/01/06 15:38:19;;;;;;;21.23;16.92;;;;;;;;;;6287345;28;24560;-72
2024/01/06 15:41:21;;;;;;;22.03;16.80;;;;;;;;;;6288779;28;24843;-71
2024/01/06 15:44:22;;;;;;;21.40;16.87;;;;;;;;;;6289362;28;24426;-72
2024/01/06 15:47:24;;;;;;;20.33;16.35;;;;;;;;;;6288110;28;24852;-72
2024/01/06 15:50:28;;;;;;;21.27;16.98;;;;;;;;;;6269394;28;24437;-72
2024/01/06 15:53:30;;;;;;;21.38;16.98;;;;;;;;;;6290433;28;24822;-71
2024/01/06 15:56:32;;;;;;;21.52;16.70;;;;;;;;;;6291165;28;24433;-72
2024/01/06 15:59:33;;;;;;;21.98;17.30;;;;;;;;;;6295960;28;24861;-71
2024/01/06 16:02:35;;;;;;;22.15;17.42;;;;;;;;;;6293617;28;24440;-71
2024/01/06 16:05:38;;;;;;;22.95;17.42;;;;;;;;;;6293672;28;24422;-62
2024/01/06 16:08:40;;;;;;;20.10;16.20;;;;;;;;;;6297832;28;24446;-62
2024/01/06 16:11:42;;;;;;;20.23;15.98;;;;;;;;;;6296487;28;24468;-63
2024/01/06 16:14:44;;;;;;;19.90;16.02;;;;;;;;;;6299416;28;24613;-62
2024/01/06 16:17:45;;;;;;;18.88;15.52;;;;;;;;;;6298585;28;24831;-62
2024/01/06 16:20:48;;;;;;;20.08;16.15;;;;;;;;;;6295080;28;24494;-62
2024/01/06 16:23:50;;;;;;;21.15;16.40;;;;;;;;;;6295699;28;24419;-62
2024/01/06 16:26:52;;;;;;;20.63;16.73;;;;;;;;;;6294161;28;24431;-62
2024/01/06 16:29:54;;;;;;;21.92;16.52;;;;;;;;;;6294467;28;24427;-62
2024/01/06 16:32:56;;;;;;;22.63;17.27;;;;;;;;;;6296414;28;24445;-62
2024/01/06 16:35:59;;;;;;;22.88;17.48;;;;;;;;;;6278485;28;24434;-62
2024/01/06 16:39:01;;;;;;;22.45;16.90;;;;;;;;;;6294314;28;24558;-63
2024/01/06 16:42:03;;;;;;;22.63;16.85;;;;;;;;;;6292375;28;24431;-63
2024/01/06 16:45:05;;;;;;;22.58;17.25;;;;;;;;;;6295946;28;24422;-62
2024/01/06 16:48:07;;;;;;;24.15;17.13;;;;;;;;;;6292154;28;24819;-62
2024/01/06 16:51:10;;;;;;;22.00;16.52;;;;;;;;;;6296935;28;24536;-63
2024/01/06 16:54:12;;;;;;;22.02;17.00;;;;;;;;;;6293458;28;24431;-62
2024/01/06 16:57:13;;;;;;;24.97;18.37;;;;;;;;;;6293317;28;24517;-63
2024/01/06 17:00:17;;;;;;;22.75;16.90;;;;;;;;;;6289734;28;24433;-63
2024/01/06 17:03:18;;;;;;;25.42;17.85;;;;;;;;;;6290963;28;24494;-63
2024/01/06 17:06:22;;;;;;;21.33;15.95;;;;;;;;;;6293302;28;24625;-62
2024/01/06 17:09:23;;;;;;;22.10;16.70;;;;;;;;;;6294091;28;24511;-63
2024/01/06 17:12:25;;;;;;;23.90;16.15;;;;;;;;;;6294759;28;24429;-63
2024/01/06 17:15:28;;;;;;;21.10;15.43;;;;;;;;;;6290599;28;24431;-63
2024/01/06 17:18:30;;;;;;;20.77;15.75;;;;;;;;;;6294380;28;24829;-63
2024/01/06 17:21:33;;;;;;;20.83;15.52;;;;;;;;;;6294086;28;24429;-63
2024/01/06 17:24:35;;;;;;;22.07;15.87;;;;;;;;;;6294147;28;24416;-62
2024/01/06 17:27:37;;;;;;;21.63;15.88;;;;;;;;;;6298803;28;24510;-62
2024/01/06 17:30:39;;;;;;;22.13;16.08;;;;;;;;;;6295825;28;24828;-63
2024/01/06 17:33:41;;;;;;;22.67;16.60;;;;;;;;;;6290773;28;24825;-62
2024/01/06 17:36:44;;;;;;;22.60;16.40;;;;;;;;;;6293108;28;25029;-62
2024/01/06 17:39:46;;;;;;;22.80;17.85;;;;;;;;;;6294150;28;24911;-62
2024/01/06 17:42:48;;;;;;;23.10;17.13;;;;;;;;;;6292672;28;24632;-62
2024/01/06 17:45:50;;;;;;;21.90;16.30;;;;;;;;;;6293976;28;24494;-63
2024/01/06 17:48:52;;;;;;;21.40;16.53;;;;;;;;;;6291706;28;24430;-62
2024/01/06 17:51:55;;;;;;;20.95;16.60;;;;;;;;;;6290052;28;24430;-62